Time;durP1;ratioP1;P1;durP2;ratioP2;P2;SDS_P1;SDS_P2;PMS_P1;PMS_P2;Temp;Humidity;BMP_temperature;BMP_pressure;BME280_temperature;BME280_humidity;BME280_pressure;Samples;Min_cycle;Max_cycle;Signal;HPM_P1;HPM_P2
2024/01/05 00:01:19;;;;;;;0.40;0.35;;;7.00;92.10;;;;;;5082267;28;20036;-75
2024/01/05 00:03:46;;;;;;;3.90;2.22;;;7.00;91.40;;;;;;5078246;28;20028;-77
2024/01/05 00:06:12;;;;;;;0.55;0.55;;;7.00;82.00;;;;;;5083602;28;20048;-76
2024/01/05 00:08:38;;;;;;;1.02;0.43;;;7.00;77.20;;;;;;5081939;28;20039;-76
2024/01/05 00:11:04;;;;;;;0.73;0.73;;;6.90;81.50;;;;;;5082782;28;20218;-76
2024/01/05 00:13:31;;;;;;;0.20;0.20;;;6.90;81.40;;;;;;5064321;28;20378;-76
2024/01/05 00:15:57;;;;;;;0.20;0.20;;;6.90;81.50;;;;;;5060567;28;20036;-76
2024/01/05 00:18:23;;;;;;;0.10;0.10;;;6.80;90.00;;;;;;5081381;28;20028;-75
2024/01/05 00:20:50;;;;;;;0.10;0.10;;;6.80;94.80;;;;;;5067933;28;20041;-77
2024/01/05 00:23:16;;;;;;;0.45;0.45;;;6.70;99.90;;;;;;5081579;28;20040;-76
2024/01/05 00:25:42;;;;;;;0.40;0.40;;;6.70;99.40;;;;;;5071323;28;20449;-76
2024/01/05 00:28:08;;;;;;;0.40;0.40;;;6.70;94.10;;;;;;5078120;28;20055;-77
2024/01/05 00:30:35;;;;;;;0.57;0.57;;;6.70;77.20;;;;;;5064902;28;20052;-80
2024/01/05 00:33:01;;;;;;;0.10;0.10;;;6.70;65.70;;;;;;5082560;28;20028;-76
2024/01/05 00:35:27;;;;;;;0.47;0.47;;;6.70;55.80;;;;;;5077995;28;20192;-76
2024/01/05 00:37:54;;;;;;;4.13;0.52;;;6.70;65.80;;;;;;5078445;28;20037;-75
2024/01/05 00:40:20;;;;;;;0.52;0.52;;;6.70;60.60;;;;;;5080184;28;20036;-76
2024/01/05 00:42:46;;;;;;;0.20;0.20;;;6.70;48.20;;;;;;5062143;28;20036;-78
2024/01/05 00:45:12;;;;;;;0.17;0.17;;;6.70;38.70;;;;;;5084317;28;20373;-75
2024/01/05 00:47:39;;;;;;;0.90;0.90;;;6.70;43.30;;;;;;5082956;28;20031;-75
2024/01/05 00:50:06;;;;;;;0.10;0.10;;;6.70;53.80;;;;;;5076228;28;20036;-76
2024/01/05 00:52:32;;;;;;;0.10;0.10;;;6.70;34.20;;;;;;5081028;28;20028;-77
2024/01/05 00:54:58;;;;;;;0.15;0.15;;;6.60;36.30;;;;;;5084494;28;20031;-77
2024/01/05 00:57:25;;;;;;;0.10;0.10;;;6.70;32.50;;;;;;5083828;28;20027;-77
2024/01/05 00:59:51;;;;;;;0.20;0.20;;;6.60;23.00;;;;;;5088514;28;20047;-77
2024/01/05 01:02:18;;;;;;;0.10;0.10;;;6.60;19.80;;;;;;5086783;28;20449;-76
2024/01/05 01:04:44;;;;;;;1.23;1.13;;;6.70;6.70;;;;;;5075272;28;20042;-76
2024/01/05 01:07:10;;;;;;;0.40;0.40;;;6.80;1.00;;;;;;5077951;28;20055;-77
2024/01/05 01:09:36;;;;;;;0.10;0.10;;;6.80;1.00;;;;;;5080778;28;20043;-77
2024/01/05 01:12:03;;;;;;;0.10;0.10;;;6.80;1.00;;;;;;5078944;28;20028;-78
2024/01/05 01:14:29;;;;;;;1.13;0.57;;;6.80;1.00;;;;;;5079430;28;20106;-77
2024/01/05 01:16:56;;;;;;;0.10;0.10;;;6.80;1.00;;;;;;5083107;28;20072;-79
2024/01/05 01:19:22;;;;;;;0.10;0.10;;;6.80;1.00;;;;;;5063105;28;20036;-76
2024/01/05 01:21:48;;;;;;;0.38;0.25;;;6.80;1.00;;;;;;5067556;28;20032;-78
2024/01/05 01:24:14;;;;;;;0.50;0.50;;;6.80;1.00;;;;;;5079350;28;20354;-77
2024/01/05 01:26:40;;;;;;;1.08;0.40;;;6.80;1.00;;;;;;5056307;28;20036;-76
2024/01/05 01:29:08;;;;;;;3.22;0.45;;;6.70;1.00;;;;;;5081781;28;20032;-82
2024/01/05 01:31:34;;;;;;;2.78;2.08;;;6.70;1.00;;;;;;5082894;28;20036;-76
2024/01/05 01:34:00;;;;;;;0.30;0.30;;;6.70;1.00;;;;;;5064356;28;20036;-77
2024/01/05 01:36:26;;;;;;;0.20;0.20;;;6.60;1.00;;;;;;5063069;28;20066;-79
2024/01/05 01:38:54;;;;;;;0.10;0.10;;;6.50;6.00;;;;;;5072663;28;20041;-76
2024/01/05 01:41:20;;;;;;;0.85;0.43;;;6.50;19.50;;;;;;5042833;28;20049;-76
2024/01/05 01:43:48;;;;;;;1.05;0.47;;;6.40;27.00;;;;;;5063377;28;20040;-77
2024/01/05 01:46:15;;;;;;;0.10;0.10;;;6.40;38.70;;;;;;5078810;28;20051;-77
2024/01/05 01:48:42;;;;;;;0.10;0.10;;;6.30;57.70;;;;;;5079051;28;20024;-77
2024/01/05 01:51:08;;;;;;;0.22;0.22;;;6.20;80.10;;;;;;5068514;28;20048;-82
2024/01/05 01:53:35;;;;;;;0.63;0.38;;;6.20;83.20;;;;;;5078726;28;20519;-78
2024/01/05 01:56:02;;;;;;;0.20;0.20;;;6.20;95.10;;;;;;5059304;28;20493;-76
2024/01/05 01:58:28;;;;;;;0.20;0.20;;;6.10;94.10;;;;;;5077464;28;20117;-79
2024/01/05 02:00:55;;;;;;;0.25;0.25;;;6.20;98.80;;;;;;5077614;28;20055;-76
2024/01/05 02:03:21;;;;;;;0.20;0.20;;;6.10;99.80;;;;;;5077355;28;20427;-76
2024/01/05 02:05:48;;;;;;;0.10;0.10;;;6.10;99.90;;;;;;5078351;28;20036;-77
2024/01/05 02:08:15;;;;;;;0.43;0.43;;;6.10;99.90;;;;;;5058177;28;20056;-78
2024/01/05 02:10:42;;;;;;;1.50;1.10;;;6.10;99.90;;;;;;5079424;28;20038;-77
2024/01/05 02:13:09;;;;;;;0.40;0.40;;;6.10;99.90;;;;;;5078880;28;20036;-83
2024/01/05 02:15:35;;;;;;;0.10;0.10;;;6.10;99.90;;;;;;5078384;28;20035;-77
2024/01/05 02:18:11;;;;;;;0.20;0.20;;;6.10;99.90;;;;;;5061485;28;20044;-77
2024/01/05 02:20:37;;;;;;;0.30;0.30;;;6.10;99.90;;;;;;5076347;28;20044;-78
2024/01/05 02:23:08;;;;;;;0.43;0.40;;;6.10;99.90;;;;;;5080969;28;20024;-76
2024/01/05 02:25:34;;;;;;;0.10;0.10;;;6.10;99.90;;;;;;5077526;28;20421;-77
2024/01/05 02:28:00;;;;;;;0.38;0.38;;;6.10;99.90;;;;;;5078922;28;20043;-76
2024/01/05 02:30:26;;;;;;;0.40;0.40;;;6.10;99.90;;;;;;5081226;28;20473;-76
2024/01/05 02:32:53;;;;;;;1.83;0.82;;;6.10;99.90;;;;;;5064389;28;20042;-77
2024/01/05 02:35:19;;;;;;;0.20;0.20;;;6.20;99.90;;;;;;5081144;28;20029;-77
2024/01/05 02:37:45;;;;;;;0.70;0.70;;;6.30;99.90;;;;;;5081114;28;20473;-76
2024/01/05 02:40:11;;;;;;;1.10;0.93;;;6.30;96.90;;;;;;5080613;28;20028;-77
2024/01/05 02:42:39;;;;;;;0.10;0.10;;;6.30;92.40;;;;;;5091658;28;20028;-76
2024/01/05 02:45:06;;;;;;;1.27;0.63;;;6.30;91.70;;;;;;5084679;28;20032;-78
2024/01/05 02:47:32;;;;;;;0.40;0.40;;;6.30;84.40;;;;;;5067126;28;20044;-76
2024/01/05 02:49:58;;;;;;;0.20;0.20;;;6.40;77.00;;;;;;5050299;28;20480;-76
2024/01/05 02:52:24;;;;;;;0.15;0.15;;;6.30;76.70;;;;;;5068382;28;20031;-77
2024/01/05 02:54:51;;;;;;;0.32;0.32;;;6.30;70.30;;;;;;5080954;28;20048;-76
2024/01/05 02:57:17;;;;;;;0.38;0.38;;;6.30;72.90;;;;;;5080682;28;20036;-77
2024/01/05 02:59:43;;;;;;;0.47;0.47;;;6.30;80.10;;;;;;5080774;28;20028;-77
2024/01/05 03:02:09;;;;;;;1.95;0.90;;;6.20;90.00;;;;;;5080779;28;20029;-77
2024/01/05 03:04:35;;;;;;;0.77;0.57;;;6.20;94.90;;;;;;5082969;28;20036;-77
2024/01/05 03:07:02;;;;;;;0.20;0.20;;;6.20;97.10;;;;;;5062180;28;20047;-76
2024/01/05 03:09:28;;;;;;;0.20;0.20;;;6.20;99.90;;;;;;5081855;28;20389;-76
2024/01/05 03:11:54;;;;;;;3.40;1.27;;;6.20;99.90;;;;;;5081135;28;20039;-77
2024/01/05 03:14:20;;;;;;;0.75;0.70;;;6.20;99.90;;;;;;5083224;28;20036;-76
2024/01/05 03:16:47;;;;;;;2.28;1.70;;;6.20;99.90;;;;;;5080502;28;20115;-77
2024/01/05 03:19:13;;;;;;;1.35;0.82;;;6.20;99.90;;;;;;5083756;28;20035;-77
2024/01/05 03:21:39;;;;;;;0.17;0.17;;;6.20;99.90;;;;;;5079049;28;20027;-77
2024/01/05 03:24:05;;;;;;;0.98;0.63;;;6.30;98.00;;;;;;5078387;28;20024;-77
2024/01/05 03:26:32;;;;;;;0.43;0.43;;;6.20;97.20;;;;;;5062207;28;20050;-82
2024/01/05 03:28:58;;;;;;;0.10;0.10;;;6.30;88.60;;;;;;5083778;28;20043;-77
2024/01/05 03:31:25;;;;;;;0.47;0.47;;;6.30;74.70;;;;;;5080946;28;20082;-77
2024/01/05 03:33:52;;;;;;;0.10;0.10;;;6.30;55.60;;;;;;5083600;28;20433;-76
2024/01/05 03:36:18;;;;;;;0.63;0.63;;;6.40;48.00;;;;;;5081643;28;20052;-77
2024/01/05 03:38:44;;;;;;;0.73;0.73;;;6.30;44.70;;;;;;5085340;28;20028;-77
2024/01/05 03:41:13;;;;;;;0.10;0.10;;;6.30;48.40;;;;;;5092900;28;20028;-81
2024/01/05 03:43:39;;;;;;;0.25;0.25;;;6.30;59.60;;;;;;5081130;28;20043;-77
2024/01/05 03:46:10;;;;;;;0.52;0.52;;;6.30;49.90;;;;;;5080384;28;20070;-77
2024/01/05 03:48:37;;;;;;;;;;;6.30;44.30;;;;;;5079977;28;20048;-79
2024/01/05 03:51:04;;;;;;;0.85;0.45;;;6.30;48.50;;;;;;5071074;28;20345;-80
2024/01/05 03:53:30;;;;;;;0.40;0.40;;;6.30;39.20;;;;;;5082515;28;20032;-77
2024/01/05 03:56:00;;;;;;;0.80;0.80;;;6.30;33.40;;;;;;5080304;28;20043;-76
2024/01/05 03:58:28;;;;;;;0.20;0.20;;;6.30;32.90;;;;;;5080286;28;20028;-76
2024/01/05 04:00:54;;;;;;;1.75;0.95;;;6.30;32.80;;;;;;5059107;28;20048;-76
2024/01/05 04:03:21;;;;;;;11.27;0.68;;;6.30;34.70;;;;;;5080986;28;20032;-77
2024/01/05 04:05:47;;;;;;;0.10;0.10;;;6.30;33.40;;;;;;5081025;28;20044;-79
2024/01/05 04:08:13;;;;;;;2.03;0.98;;;6.30;28.10;;;;;;5047408;28;20040;-77
2024/01/05 04:10:40;;;;;;;0.17;0.17;;;6.30;33.90;;;;;;5081697;28;20047;-77
2024/01/05 04:13:06;;;;;;;0.90;0.88;;;6.30;41.90;;;;;;5079532;28;20033;-77
2024/01/05 04:15:37;;;;;;;0.20;0.20;;;6.30;44.40;;;;;;5080903;28;20032;-78
2024/01/05 04:18:04;;;;;;;0.20;0.20;;;6.30;39.40;;;;;;5072964;28;20037;-82
2024/01/05 04:20:30;;;;;;;0.57;0.50;;;6.30;38.20;;;;;;5084842;28;20043;-77
2024/01/05 04:22:56;;;;;;;3.40;2.47;;;6.30;28.10;;;;;;5064624;28;20036;-77
2024/01/05 04:25:22;;;;;;;3.10;2.45;;;6.30;23.50;;;;;;5081388;28;20036;-77
2024/01/05 04:27:49;;;;;;;11.77;3.63;;;6.30;28.60;;;;;;5061711;28;20040;-77
2024/01/05 04:30:15;;;;;;;3.83;3.45;;;6.30;29.70;;;;;;5078290;28;20032;-76
2024/01/05 04:32:43;;;;;;;8.18;3.90;;;6.30;27.70;;;;;;5081685;28;20040;-77
2024/01/05 04:35:09;;;;;;;3.03;2.80;;;6.30;27.10;;;;;;5080555;28;20040;-79
2024/01/05 04:37:36;;;;;;;8.30;4.05;;;6.30;31.10;;;;;;5079472;28;20052;-76
2024/01/05 04:40:02;;;;;;;12.45;7.15;;;6.30;33.60;;;;;;5081491;28;20056;-76
2024/01/05 04:42:29;;;;;;;4.65;4.25;;;6.30;35.00;;;;;;5078139;28;20033;-76
2024/01/05 04:44:56;;;;;;;6.85;5.43;;;6.30;41.80;;;;;;5081729;28;20040;-76
2024/01/05 04:47:22;;;;;;;3.10;2.80;;;6.40;28.30;;;;;;5061573;28;20461;-76
2024/01/05 04:49:48;;;;;;;5.60;2.83;;;6.30;21.50;;;;;;5078270;28;20037;-76
2024/01/05 04:52:14;;;;;;;19.63;9.38;;;6.40;27.10;;;;;;5078006;28;20024;-75
2024/01/05 04:54:40;;;;;;;1.85;1.55;;;6.40;11.50;;;;;;5081369;28;20029;-76
2024/01/05 04:57:07;;;;;;;2.13;1.65;;;6.50;4.20;;;;;;5075121;28;20040;-82
2024/01/05 04:59:33;;;;;;;0.90;0.90;;;6.50;1.00;;;;;;5078987;28;20032;-77
2024/01/05 05:02:00;;;;;;;1.58;1.27;;;6.50;4.70;;;;;;5063329;28;20041;-77
2024/01/05 05:04:26;;;;;;;0.17;0.17;;;6.50;1.00;;;;;;5081996;28;20043;-79
2024/01/05 05:06:53;;;;;;;1.45;1.00;;;6.50;1.00;;;;;;5083334;28;20476;-79
2024/01/05 05:09:20;;;;;;;0.57;0.57;;;6.50;1.00;;;;;;5078297;28;20040;-76
2024/01/05 05:11:46;;;;;;;0.75;0.75;;;6.50;1.00;;;;;;5081401;28;20389;-76
2024/01/05 05:14:12;;;;;;;2.97;2.55;;;6.50;1.00;;;;;;5077529;28;20029;-78
2024/01/05 05:16:39;;;;;;;0.93;0.82;;;6.50;1.00;;;;;;5077823;28;20473;-76
2024/01/05 05:19:06;;;;;;;0.63;0.63;;;6.50;1.00;;;;;;5081448;28;20033;-76
2024/01/05 05:21:32;;;;;;;1.70;1.05;;;6.50;1.00;;;;;;5078916;28;20035;-78
2024/01/05 05:23:58;;;;;;;1.73;0.68;;;6.50;1.00;;;;;;5062157;28;20383;-77
2024/01/05 05:26:24;;;;;;;0.30;0.30;;;6.50;1.00;;;;;;5078620;28;20028;-77
2024/01/05 05:28:50;;;;;;;2.60;1.20;;;6.50;1.00;;;;;;5064623;28;20032;-77
2024/01/05 05:31:17;;;;;;;0.55;0.55;;;6.50;1.00;;;;;;5069254;28;20051;-77
2024/01/05 05:33:43;;;;;;;1.50;1.27;;;6.50;2.90;;;;;;5082455;28;20032;-75
2024/01/05 05:36:09;;;;;;;0.10;0.10;;;6.50;1.00;;;;;;5079718;28;20047;-77
2024/01/05 05:38:35;;;;;;;0.82;0.80;;;6.50;1.00;;;;;;5064033;28;20123;-77
2024/01/05 05:41:02;;;;;;;0.45;0.45;;;6.50;1.00;;;;;;5068433;28;20036;-76
2024/01/05 05:43:29;;;;;;;0.65;0.65;;;6.60;1.00;;;;;;5080235;28;20027;-77
2024/01/05 05:45:55;;;;;;;0.57;0.57;;;6.60;1.00;;;;;;5080096;28;20060;-76
2024/01/05 05:48:21;;;;;;;0.30;0.30;;;6.60;1.00;;;;;;5075028;28;20032;-77
2024/01/05 05:50:47;;;;;;;0.63;0.60;;;6.60;1.00;;;;;;5080643;28;20385;-76
2024/01/05 05:53:14;;;;;;;7.30;3.58;;;6.70;1.00;;;;;;5083271;28;20037;-77
2024/01/05 05:55:40;;;;;;;3.28;2.97;;;6.70;1.00;;;;;;5079057;28;20043;-77
2024/01/05 05:58:08;;;;;;;0.80;0.80;;;6.70;1.00;;;;;;5076786;28;20036;-77
2024/01/05 06:00:35;;;;;;;1.50;0.90;;;6.80;1.00;;;;;;5080874;28;20047;-76
2024/01/05 06:03:01;;;;;;;1.05;0.88;;;6.80;1.00;;;;;;5080917;28;20028;-78
2024/01/05 06:05:28;;;;;;;1.67;1.58;;;6.80;20.00;;;;;;5082276;28;20048;-77
2024/01/05 06:07:54;;;;;;;1.35;1.25;;;6.80;28.60;;;;;;5046876;28;20051;-77
2024/01/05 06:10:20;;;;;;;1.30;1.20;;;6.80;52.90;;;;;;5079621;28;20029;-77
2024/01/05 06:12:46;;;;;;;0.50;0.50;;;6.80;48.80;;;;;;5080206;28;20036;-77
2024/01/05 06:15:13;;;;;;;2.08;0.57;;;6.80;47.30;;;;;;5078687;28;20397;-78
2024/01/05 06:17:39;;;;;;;0.10;0.10;;;6.80;38.90;;;;;;5081598;28;20039;-78
2024/01/05 06:20:08;;;;;;;2.03;0.47;;;6.80;42.60;;;;;;5079636;28;20040;-77
2024/01/05 06:22:34;;;;;;;0.20;0.20;;;6.80;22.90;;;;;;5083927;28;20032;-77
2024/01/05 06:25:00;;;;;;;0.20;0.20;;;6.80;7.90;;;;;;5064497;28;20029;-77
2024/01/05 06:27:27;;;;;;;0.47;0.47;;;6.90;2.20;;;;;;5066505;28;20047;-77
2024/01/05 06:29:53;;;;;;;0.80;0.45;;;6.90;1.00;;;;;;5081524;28;20389;-77
2024/01/05 06:32:20;;;;;;;0.45;0.40;;;6.90;1.00;;;;;;5081290;28;20047;-77
2024/01/05 06:34:46;;;;;;;0.10;0.10;;;6.90;1.00;;;;;;5084753;28;20397;-79
2024/01/05 06:37:12;;;;;;;0.20;0.20;;;6.90;1.00;;;;;;5083197;28;20052;-77
2024/01/05 06:39:38;;;;;;;11.13;0.77;;;7.00;1.00;;;;;;5091159;28;20036;-77
2024/01/05 06:42:04;;;;;;;0.05;0.05;;;7.00;1.00;;;;;;5085660;28;20032;-79
2024/01/05 06:44:31;;;;;;;0.30;0.30;;;7.00;1.00;;;;;;5084617;28;20024;-79
2024/01/05 06:46:57;;;;;;;4.82;1.20;;;7.00;1.00;;;;;;5084718;28;20056;-76
2024/01/05 06:49:23;;;;;;;0.60;0.60;;;7.00;1.00;;;;;;5083554;28;20029;-76
2024/01/05 06:51:49;;;;;;;4.18;2.38;;;7.00;1.00;;;;;;5085527;28;20036;-75
2024/01/05 06:54:17;;;;;;;1.42;1.35;;;7.00;1.00;;;;;;5081549;28;20056;-77
2024/01/05 06:56:44;;;;;;;2.35;1.83;;;7.00;1.00;;;;;;5086705;28;20043;-75
2024/01/05 06:59:10;;;;;;;1.25;1.15;;;7.00;4.20;;;;;;5082503;28;20029;-78
2024/01/05 07:01:37;;;;;;;0.32;0.32;;;7.00;6.10;;;;;;5082531;28;20035;-75
2024/01/05 07:04:03;;;;;;;0.63;0.63;;;6.90;1.00;;;;;;5088062;28;20354;-75
2024/01/05 07:06:29;;;;;;;0.52;0.52;;;6.90;1.00;;;;;;5084603;28;20576;-82
2024/01/05 07:08:55;;;;;;;0.43;0.43;;;6.90;1.00;;;;;;5081234;28;20044;-76
2024/01/05 07:11:23;;;;;;;1.05;0.98;;;6.90;1.00;;;;;;5083973;28;20032;-77
2024/01/05 07:13:50;;;;;;;3.00;1.42;;;6.90;1.00;;;;;;5083967;28;20472;-76
2024/01/05 07:16:20;;;;;;;0.98;0.98;;;6.90;1.00;;;;;;5067011;28;20055;-75
2024/01/05 07:18:49;;;;;;;1.25;0.80;;;6.90;1.00;;;;;;5079997;28;20066;-75
2024/01/05 07:21:17;;;;;;;0.40;0.25;;;6.90;1.00;;;;;;5081484;28;20024;-75
2024/01/05 07:23:43;;;;;;;1.10;0.40;;;6.90;1.00;;;;;;5081366;28;20594;-79
2024/01/05 07:26:09;;;;;;;0.63;0.63;;;6.90;1.00;;;;;;5077835;28;22104;-76
2024/01/05 07:28:37;;;;;;;0.30;0.30;;;6.90;1.00;;;;;;5082085;28;20369;-75
2024/01/05 07:31:08;;;;;;;0.60;0.60;;;6.80;1.00;;;;;;5082040;28;20032;-77
2024/01/05 07:33:34;;;;;;;0.65;0.65;;;6.80;1.30;;;;;;5082280;28;20393;-75
2024/01/05 07:36:04;;;;;;;0.25;0.25;;;6.80;1.00;;;;;;5086479;28;20043;-75
2024/01/05 07:38:34;;;;;;;1.77;1.67;;;6.80;1.80;;;;;;5081494;28;20032;-76
2024/01/05 07:41:01;;;;;;;0.98;0.98;;;6.80;1.70;;;;;;5065080;28;20036;-74
2024/01/05 07:43:29;;;;;;;0.82;0.82;;;6.80;1.00;;;;;;5082368;28;20040;-75
2024/01/05 07:45:55;;;;;;;1.38;1.27;;;6.80;3.50;;;;;;5083740;28;20040;-77
2024/01/05 07:48:21;;;;;;;0.45;0.45;;;6.80;1.80;;;;;;5078910;28;20473;-76
2024/01/05 07:50:48;;;;;;;0.65;0.65;;;6.80;1.00;;;;;;5064915;28;20037;-77
2024/01/05 07:53:14;;;;;;;0.45;0.45;;;6.80;1.00;;;;;;5081597;28;20048;-76
2024/01/05 07:55:41;;;;;;;0.77;0.77;;;6.80;1.00;;;;;;5077649;28;20044;-76
2024/01/05 07:58:07;;;;;;;2.20;1.40;;;6.90;1.00;;;;;;5081521;28;20036;-77
2024/01/05 08:00:35;;;;;;;0.65;0.65;;;6.90;1.00;;;;;;5080707;28;20036;-75
2024/01/05 08:03:03;;;;;;;0.43;0.43;;;6.90;1.00;;;;;;5086875;28;20036;-77
2024/01/05 08:05:30;;;;;;;1.40;1.27;;;6.90;1.00;;;;;;5080153;28;20035;-76
2024/01/05 08:07:56;;;;;;;0.68;0.68;;;7.00;1.00;;;;;;5078885;28;20045;-75
2024/01/05 08:10:23;;;;;;;3.92;1.45;;;6.90;1.00;;;;;;5065633;28;20045;-76
2024/01/05 08:12:49;;;;;;;0.10;0.10;;;7.00;1.00;;;;;;5083771;28;20401;-77
2024/01/05 08:15:15;;;;;;;0.68;0.68;;;7.10;1.00;;;;;;5082041;28;20106;-78
2024/01/05 08:17:41;;;;;;;0.22;0.22;;;7.10;1.00;;;;;;5080875;28;20051;-77
2024/01/05 08:20:08;;;;;;;0.68;0.68;;;7.20;1.00;;;;;;5063475;28;20496;-74
2024/01/05 08:22:34;;;;;;;0.15;0.15;;;7.20;1.00;;;;;;5086324;28;20029;-77
2024/01/05 08:25:00;;;;;;;0.88;0.65;;;7.20;1.00;;;;;;5086187;28;20044;-75
2024/01/05 08:27:26;;;;;;;0.22;0.22;;;7.30;1.00;;;;;;5082295;28;20457;-75
2024/01/05 08:29:52;;;;;;;0.20;0.20;;;7.30;1.00;;;;;;5073837;28;20444;-76
2024/01/05 08:32:19;;;;;;;1.45;1.35;;;7.40;1.00;;;;;;5079033;28;20388;-80
2024/01/05 08:34:45;;;;;;;2.22;1.50;;;7.40;1.00;;;;;;5068281;28;20069;-77
2024/01/05 08:37:11;;;;;;;0.20;0.20;;;7.40;1.00;;;;;;5083239;28;20067;-84
2024/01/05 08:39:41;;;;;;;0.20;0.20;;;7.40;1.00;;;;;;5077456;28;20406;-75
2024/01/05 08:42:08;;;;;;;3.25;0.95;;;7.40;1.00;;;;;;5080524;28;20032;-76
2024/01/05 08:44:38;;;;;;;0.75;0.57;;;7.40;1.00;;;;;;5079472;28;20036;-77
2024/01/05 08:47:05;;;;;;;0.40;0.40;;;7.40;1.00;;;;;;5082729;28;20040;-77
2024/01/05 08:49:33;;;;;;;0.57;0.43;;;7.40;1.00;;;;;;5077864;28;20613;-79
2024/01/05 08:52:00;;;;;;;4.60;2.75;;;7.40;1.00;;;;;;5064993;28;20051;-81
2024/01/05 08:54:26;;;;;;;3.55;3.25;;;7.40;1.00;;;;;;5082884;28;20028;-76
2024/01/05 08:56:53;;;;;;;19.15;10.77;;;7.40;1.00;;;;;;5064492;28;20040;-77
2024/01/05 08:59:19;;;;;;;12.25;7.18;;;7.50;1.00;;;;;;5061201;28;20077;-77
2024/01/05 09:01:45;;;;;;;10.15;7.82;;;7.60;1.00;;;;;;5081998;28;20035;-79
2024/01/05 09:04:12;;;;;;;2.50;2.30;;;7.70;1.00;;;;;;5078681;28;20035;-79
2024/01/05 09:06:38;;;;;;;0.60;0.60;;;7.90;1.00;;;;;;5082736;28;20486;-76
2024/01/05 09:09:05;;;;;;;0.50;0.50;;;8.00;1.00;;;;;;5074508;28;20055;-75
2024/01/05 09:11:31;;;;;;;0.30;0.30;;;8.10;99.90;;;;;;5077653;28;20044;-75
2024/01/05 09:13:58;;;;;;;1.00;1.00;;;8.10;99.90;;;;;;5080938;28;20179;-76
2024/01/05 09:16:24;;;;;;;0.93;0.90;;;8.00;99.90;;;;;;5077203;28;20032;-76
2024/01/05 09:18:51;;;;;;;0.20;0.20;;;8.00;99.90;;;;;;5078719;28;20044;-74
2024/01/05 09:21:17;;;;;;;6.88;1.75;;;8.00;99.90;;;;;;5046200;28;20044;-74
2024/01/05 09:23:44;;;;;;;0.63;0.30;;;8.00;99.90;;;;;;5069164;28;20385;-77
2024/01/05 09:26:14;;;;;;;1.15;1.05;;;8.10;99.90;;;;;;5079231;28;20047;-77
2024/01/05 09:28:42;;;;;;;8.25;0.95;;;8.10;99.90;;;;;;5077307;28;20462;-76
2024/01/05 09:31:11;;;;;;;0.30;0.30;;;8.20;99.90;;;;;;5078385;28;20032;-76
2024/01/05 09:33:37;;;;;;;0.30;0.20;;;8.20;99.90;;;;;;5081503;28;20024;-77
2024/01/05 09:36:04;;;;;;;0.20;0.20;;;8.30;99.90;;;;;;5082978;28;20516;-76
2024/01/05 09:38:30;;;;;;;0.22;0.22;;;8.30;99.90;;;;;;5061609;28;20047;-76
2024/01/05 09:40:58;;;;;;;22.80;0.60;;;8.40;99.90;;;;;;5061840;28;20031;-76
2024/01/05 09:43:24;;;;;;;0.20;0.20;;;8.40;99.90;;;;;;5058291;28;20044;-76
2024/01/05 09:45:52;;;;;;;2.35;0.75;;;8.40;99.90;;;;;;5080350;28;20055;-76
2024/01/05 09:48:22;;;;;;;0.30;0.20;;;8.50;99.90;;;;;;5086574;28;20099;-76
2024/01/05 09:50:53;;;;;;;0.20;0.20;;;8.50;99.90;;;;;;5084964;28;20044;-76
2024/01/05 09:53:20;;;;;;;0.55;0.40;;;8.60;99.90;;;;;;5080305;28;20039;-74
2024/01/05 09:55:50;;;;;;;1.52;0.98;;;8.60;99.90;;;;;;5085958;28;20357;-75
2024/01/05 09:58:17;;;;;;;0.40;0.40;;;8.50;99.90;;;;;;5078489;28;20485;-73
2024/01/05 10:00:49;;;;;;;2.47;0.60;;;8.50;99.90;;;;;;5070074;28;20045;-74
2024/01/05 10:03:26;;;;;;;0.43;0.43;;;8.50;99.90;;;;;;5065285;28;20048;-73
2024/01/05 10:05:53;;;;;;;0.30;0.30;;;8.60;99.90;;;;;;5076659;28;20029;-74
2024/01/05 10:08:23;;;;;;;7.40;2.53;;;8.60;99.90;;;;;;5080963;28;20170;-76
2024/01/05 10:10:55;;;;;;;3.83;3.35;;;8.60;99.90;;;;;;5076602;28;20032;-76
2024/01/05 10:13:21;;;;;;;4.32;3.30;;;8.70;99.90;;;;;;5077318;28;20369;-76
2024/01/05 10:16:06;;;;;;;9.27;5.85;;;8.80;99.90;;;;;;5078067;28;20044;-75
2024/01/05 10:18:33;;;;;;;1.80;1.70;;;9.00;99.90;;;;;;5079765;28;20035;-75
2024/01/05 10:21:10;;;;;;;4.30;3.60;;;9.10;99.90;;;;;;5050196;28;20476;-75
2024/01/05 10:23:43;;;;;;;2.17;1.98;;;9.20;99.90;;;;;;5078779;28;20047;-75
2024/01/05 10:26:17;;;;;;;0.82;0.65;;;9.30;99.90;;;;;;5059055;28;20047;-74
2024/01/05 10:28:43;;;;;;;0.55;0.55;;;9.40;99.90;;;;;;5077493;28;20054;-76
2024/01/05 10:31:14;;;;;;;0.20;0.20;;;9.50;99.90;;;;;;5060514;28;20523;-77
2024/01/05 10:33:57;;;;;;;0.63;0.50;;;9.60;99.90;;;;;;5079135;28;20111;-78
2024/01/05 10:36:26;;;;;;;0.17;0.17;;;9.70;99.90;;;;;;5078803;28;20052;-76
2024/01/05 10:38:52;;;;;;;0.40;0.40;;;9.80;99.90;;;;;;5076704;28;20043;-75
2024/01/05 10:41:23;;;;;;;0.35;0.35;;;9.80;99.90;;;;;;5077566;28;20394;-75
2024/01/05 10:43:49;;;;;;;1.35;0.63;;;9.80;99.90;;;;;;5078358;28;20032;-76
2024/01/05 10:46:20;;;;;;;0.10;0.10;;;9.80;99.90;;;;;;5060990;28;20032;-76
2024/01/05 10:48:47;;;;;;;0.10;0.10;;;9.80;99.90;;;;;;5056084;28;20146;-77
2024/01/05 10:51:20;;;;;;;0.68;0.65;;;9.80;99.90;;;;;;5065612;28;20032;-77
2024/01/05 10:53:50;;;;;;;0.57;0.30;;;9.80;99.90;;;;;;5048185;28;20037;-77
2024/01/05 10:56:20;;;;;;;0.47;0.47;;;9.70;99.90;;;;;;5047549;28;20052;-76
2024/01/05 10:58:50;;;;;;;0.43;0.43;;;9.80;99.90;;;;;;5075119;28;20033;-76
2024/01/05 11:01:19;;;;;;;0.10;0.10;;;9.80;99.90;;;;;;5065112;28;20032;-76
2024/01/05 11:03:48;;;;;;;0.20;0.20;;;9.80;99.90;;;;;;5064287;28;20040;-75
2024/01/05 11:06:15;;;;;;;0.10;0.10;;;9.80;99.90;;;;;;5064104;28;20032;-76
2024/01/05 11:08:51;;;;;;;0.30;0.30;;;9.90;99.90;;;;;;5080988;28;20040;-76
2024/01/05 11:11:46;;;;;;;0.90;0.90;;;9.90;99.90;;;;;;5065696;28;20468;-76
2024/01/05 11:14:35;;;;;;;0.30;0.20;;;9.90;99.90;;;;;;5080671;28;20029;-75
2024/01/05 11:17:35;;;;;;;0.52;0.32;;;9.90;99.90;;;;;;5070921;28;20481;-73
2024/01/05 11:20:37;;;;;;;0.10;0.10;;;10.00;99.90;;;;;;5076468;28;20043;-73
2024/01/05 11:23:04;;;;;;;1.45;0.80;;;10.10;99.90;;;;;;4989956;28;20053;-74
2024/01/05 11:25:30;;;;;;;1.02;0.70;;;10.20;97.10;;;;;;5041923;28;20036;-73
2024/01/05 11:27:57;;;;;;;0.10;0.10;;;10.30;93.70;;;;;;5083266;28;20253;-78
2024/01/05 11:30:39;;;;;;;0.80;0.80;;;10.20;84.90;;;;;;5081284;28;20051;-73
2024/01/05 11:33:06;;;;;;;0.10;0.10;;;10.20;77.70;;;;;;5079928;28;20474;-74
2024/01/05 11:35:39;;;;;;;0.32;0.32;;;10.20;84.70;;;;;;5078687;28;20048;-74
2024/01/05 11:38:27;;;;;;;0.20;0.20;;;10.20;90.80;;;;;;5080933;28;20037;-74
2024/01/05 11:40:53;;;;;;;0.10;0.10;;;10.20;99.90;;;;;;5063804;28;20032;-75
2024/01/05 11:43:33;;;;;;;0.10;0.10;;;10.20;96.20;;;;;;5078597;28;20048;-74
2024/01/05 11:45:59;;;;;;;0.85;0.68;;;10.10;60.50;;;;;;5065120;28;20040;-75
2024/01/05 11:48:34;;;;;;;0.10;0.10;;;10.10;75.50;;;;;;5068270;28;20048;-73
2024/01/05 11:51:07;;;;;;;0.13;0.13;;;10.10;92.80;;;;;;5081489;28;20579;-77
2024/01/05 11:53:34;;;;;;;0.30;0.22;;;10.10;83.30;;;;;;5071012;28;20039;-74
2024/01/05 11:56:10;;;;;;;0.65;0.40;;;10.10;97.60;;;;;;5082012;28;20052;-75
2024/01/05 11:58:38;;;;;;;0.30;0.30;;;10.10;92.50;;;;;;5079410;28;20032;-75
2024/01/05 12:01:09;;;;;;;0.10;0.10;;;10.00;82.80;;;;;;5082293;28;20032;-75
2024/01/05 12:03:39;;;;;;;;;;;10.00;92.00;;;;;;5079925;28;20031;-74
2024/01/05 12:06:09;;;;;;;0.10;0.10;;;10.00;98.70;;;;;;5072003;28;19915;-75
2024/01/05 12:08:36;;;;;;;;;;;10.00;92.00;;;;;;5081420;28;20040;-75
2024/01/05 12:11:05;;;;;;;1.10;0.50;;;10.00;74.90;;;;;;5082967;28;19904;-74
2024/01/05 12:13:33;;;;;;;0.52;0.40;;;10.00;79.10;;;;;;5084214;28;20024;-75
2024/01/05 12:16:02;;;;;;;0.20;0.20;;;10.00;75.30;;;;;;5089638;28;20032;-75
2024/01/05 12:18:32;;;;;;;0.28;0.28;;;10.00;99.80;;;;;;5091506;28;20066;-76
2024/01/05 12:21:03;;;;;;;0.75;0.43;;;10.00;82.20;;;;;;5080835;28;20076;-76
2024/01/05 12:23:31;;;;;;;0.65;0.65;;;10.10;69.90;;;;;;5063813;28;20044;-76
2024/01/05 12:26:03;;;;;;;0.30;0.30;;;10.10;86.50;;;;;;5069040;28;20037;-75
2024/01/05 12:28:33;;;;;;;0.08;0.08;;;10.20;53.50;;;;;;5068059;28;20052;-76
2024/01/05 12:31:02;;;;;;;5.43;0.95;;;10.20;43.10;;;;;;5062139;28;20504;-75
2024/01/05 12:33:30;;;;;;;0.38;0.38;;;10.30;32.60;;;;;;5065558;28;20055;-74
2024/01/05 12:35:56;;;;;;;0.30;0.30;;;10.30;37.00;;;;;;5066714;28;20044;-75
2024/01/05 12:38:27;;;;;;;0.10;0.10;;;10.30;27.60;;;;;;5047839;28;20057;-75
2024/01/05 12:41:08;;;;;;;0.55;0.30;;;10.40;14.90;;;;;;5063109;28;20028;-75
2024/01/05 12:43:35;;;;;;;;;;;10.40;5.40;;;;;;5061420;28;20111;-76
2024/01/05 12:46:03;;;;;;;0.20;0.20;;;10.50;1.00;;;;;;5071502;28;19921;-75
2024/01/05 12:48:30;;;;;;;0.30;0.30;;;10.50;1.00;;;;;;5067431;28;20032;-76
2024/01/05 12:51:11;;;;;;;0.93;0.93;;;10.50;1.00;;;;;;5064587;28;20032;-75
2024/01/05 12:53:38;;;;;;;2.17;1.35;;;10.50;1.00;;;;;;5059648;28;20484;-76
2024/01/05 12:56:08;;;;;;;0.45;0.45;;;10.60;1.00;;;;;;5060273;28;20024;-75
2024/01/05 12:58:41;;;;;;;1.17;1.08;;;10.80;1.00;;;;;;5059112;28;20047;-75
2024/01/05 13:01:18;;;;;;;0.68;0.47;;;10.80;1.00;;;;;;5064658;28;20040;-75
2024/01/05 13:04:03;;;;;;;1.90;1.42;;;10.90;1.00;;;;;;5075284;28;20048;-75